Pagrindinis puslapis
METAR-TAF:

METAR-TAF

Oro uostai :

Džordžtaunas, Didysis Kaimanas, Kaimanų salos

platuma: 19-17N, ilguma: 081-21W, Aukštis: 3 m

Dabartinis oras

Ataskaita buvo paskelbta 31 minutes, ne 14:00 UTC
Vėjas 13 kt iš Rytų/Šiaurės Rytų
Temperatūra 28°C
Drėgmė 66%
Slėgis 1017 hPa
Matomumas 10 km arba daugiau
Mažai debesys ne aukštis 1800 ft

METAR: MWCR 211400Z 06013KT 9999 FEW018 28/21 Q1017

Laikas: 09:31 (14:31 UTC)

Prognozė

Ataskaita buvo paskelbta 15 valandos ir 31 minutes, ne 23:00 UTC
Prognozė galioja nuo 21 metu 00 UTC su 21 metu 24 UTC
Vėjas 18 kt iš Rytų/Šiaurės Rytų
Matomumas 10 km arba daugiau
Mažai debesys ne aukštis 2000 ft
Išsisklaidę debesys ne aukštis 3000 ft

TAF: MWCR 202300Z 2100/2124 07018KT 9999 FEW020 SCT030

Orai ataskaitas ir orų prognozės (METAR, TAF).

turimą stotys yra geltonos ir raudonos taškus žemėlapyje.

Perkelti pele per norėdami pamatyti stoties vardą.

Tada spustelėkite, norėdami matyti oro stebėjimo ir prognozės.

Norėdami pakeisti žemėlapį: spustelėkite ant žalios mygtukų su juodo kryžiaus žemyn,; žalią mygtuką su brūkšneliu, jei norite nutolinti; arba žalių rodyklių gretimoms žemėlapius.


METAR-TAF: